Data for 10/08/2008

Time Sea-Level Adjusted Pressure Absolute Pressure Temperature Relative Humidity Dew Point   
(mb) (inHg) (mb) (inHg) (C) (F) (%) (C) (F)
00:05 1021 30.15 851 25.13 7.5 45.6 44 -4 24.8
00:10 1021 30.15 851 25.13 7.5 45.4 45 -3.6 25.5
00:15 1022 30.18 851 25.13 7.1 44.8 48 -3.2 26.3
00:20 1022 30.18 851 25.13 6.6 43.8 50 -3.2 26.3
00:25 1022 30.18 851 25.13 6.4 43.4 50 -3.4 25.9
00:30 1022 30.18 851 25.13 6.2 43.1 50 -3.4 25.9
00:35 1022 30.18 851 25.13 5.9 42.7 50 -3.6 25.6
00:40 1022 30.18 851 25.13 5.8 42.5 51 -3.6 25.5
00:45 1022 30.18 851 25.13 5.8 42.4 50 -3.9 25
00:50 1022 30.18 851 25.13 5.7 42.2 50 -3.8 25.1
00:55 1022 30.18 851 25.13 5.4 41.8 51 -4 24.8
01:00 1022 30.18 851 25.13 5.4 41.7 51 -3.9 24.9
01:05 1022 30.18 851 25.13 5.5 41.9 50 -4.1 24.7
01:10 1022 30.18 851 25.13 5.5 41.9 50 -4 24.8
01:15 1022 30.18 851 25.13 5.4 41.6 50 -4.2 24.4
01:20 1022 30.18 851 25.13 5.4 41.8 50 -4.2 24.4
01:25 1022 30.18 851 25.13 5.4 41.7 50 -4.1 24.6
01:30 1022 30.18 851 25.13 5.4 41.7 50 -4.1 24.6
01:35 1022 30.18 851 25.13 5.1 41.1 50 -4.4 24
01:40 1022 30.18 851 25.13 4.8 40.7 51 -4.3 24.2
01:45 1022 30.18 851 25.13 4.7 40.5 51 -4.7 23.6
01:50 1022 30.18 851 25.13 4.9 40.8 49 -5 23.1
01:55 1022 30.18 851 25.13 5 41 49 -4.9 23.3
02:00 1022 30.18 851 25.13 5.1 41.1 47 -5.3 22.4
02:05 1022 30.18 851 25.13 5.3 41.5 45 -5.6 22
02:10 1022 30.18 851 25.13 5.4 41.6 47 -4.9 23.1
02:15 1022 30.18 851 25.13 5.3 41.5 47 -5.2 22.6
02:20 1022 30.18 851 25.13 5 41.1 47 -5.5 22.1
02:25 1022 30.18 851 25.13 5.1 41.2 46 -5.6 21.9
02:30 1022 30.18 851 25.13 5 41 46 -5.5 22.1
02:35 1022 30.18 851 25.13 4.9 40.8 48 -5.3 22.5
02:40 1022 30.18 851 25.13 4.9 40.8 46 -5.8 21.5
02:45 1022 30.18 851 25.13 4.9 40.8 47 -5.6 22
02:50 1022 30.18 851 25.13 4.9 40.9 45 -6 21.2
02:55 1022 30.18 851 25.13 5 41 47 -5.5 22.1
03:00 1022 30.18 851 25.13 4.8 40.6 47 -5.7 21.8
03:05 1022 30.18 851 25.13 4.6 40.2 47 -5.8 21.6
03:10 1022 30.18 851 25.13 4.5 40.1 47 -5.7 21.7
03:15 1022 30.18 851 25.13 4.5 40.1 47 -6 21.2
03:20 1022 30.18 851 25.13 4.6 40.3 46 -6.2 20.9
03:25 1022 30.18 851 25.13 4.7 40.4 46 -6 21.2
03:30 1022 30.18 851 25.13 4.6 40.3 47 -5.7 21.7
03:35 1022 30.18 851 25.13 4.3 39.7 49 -5.6 22
03:40 1022 30.18 851 25.13 3.8 38.9 50 -5.6 22
03:45 1022 30.18 851 25.13 3.2 37.8 52 -5.7 21.7
03:50 1022 30.18 851 25.13 2.9 37.2 54 -5.6 21.9
03:55 1022 30.18 851 25.13 2.7 36.9 53 -5.8 21.6
04:00 1022 30.18 851 25.13 2.8 37.1 52 -6.1 21
04:05 1022 30.18 851 25.13 3.2 37.7 51 -6 21.2
04:10 1022 30.18 851 25.13 3.6 38.5 49 -6.1 21
04:15 1022 30.18 851 25.13 3.6 38.5 50 -5.7 21.7
04:20 1022 30.18 852 25.16 3.3 37.9 52 -5.7 21.8
04:25 1022 30.18 852 25.16 2.8 37.1 53 -5.8 21.6
04:30 1022 30.18 852 25.16 2.9 37.1 51 -6.2 20.8
04:35 1023 30.21 852 25.16 3.1 37.7 49 -6.7 20
04:40 1022 30.18 852 25.16 3.2 37.8 51 -6 21.1
04:45 1023 30.21 852 25.16 2.8 37 52 -6.2 20.8
04:50 1022 30.18 852 25.16 2.8 37 52 -6.3 20.7
04:55 1022 30.18 852 25.16 2.7 36.9 52 -6.3 20.7
05:00 1023 30.21 852 25.16 2.7 36.8 51 -6.4 20.5
05:05 1023 30.21 852 25.16 2.5 36.4 53 -6.2 20.8
05:10 1023 30.21 852 25.16 2.4 36.3 53 -6.3 20.7
05:15 1023 30.21 852 25.16 2.2 36 54 -6.2 20.8
05:20 1023 30.21 852 25.16 2.2 36 53 -6.4 20.5
05:25 1023 30.21 852 25.16 2.6 36.6 51 -6.7 20
05:30 1023 30.21 852 25.16 3 37.4 49 -6.8 19.8
05:35 1023 30.21 852 25.16 3.3 37.9 47 -7 19.4
05:40 1023 30.21 852 25.16 3.5 38.2 47 -6.8 19.8
05:45 1023 30.21 852 25.16 3.4 38.2 48 -6.7 20
05:50 1023 30.21 852 25.16 3.3 38 49 -6.5 20.3
05:55 1023 30.21 852 25.16 2.8 37.1 51 -6.2 20.8
06:00 1023 30.21 852 25.16 2.6 36.7 51 -6.6 20.1
06:05 1023 30.21 852 25.16 2.8 37 51 -6.3 20.7
06:10 1023 30.21 852 25.16 2.4 36.3 52 -6.5 20.3
06:15 1023 30.21 852 25.16 2.4 36.2 52 -6.4 20.5
06:20 1023 30.21 852 25.16 2.1 35.8 55 -5.9 21.4
06:25 1023 30.21 852 25.16 1.8 35.3 56 -6.1 21.1
06:30 1023 30.21 852 25.16 1.8 35.2 56 -6.1 20.9
06:35 1023 30.21 852 25.16 1.6 35 57 -6 21.1
06:40 1023 30.21 852 25.16 1.4 34.6 58 -5.9 21.3
06:45 1023 30.21 852 25.16 1.3 34.4 58 -6.1 21
06:50 1023 30.21 852 25.16 1.2 34.1 59 -5.9 21.3
06:55 1023 30.21 853 25.19 1.3 34.3 58 -6.1 21
07:00 1023 30.21 853 25.19 1.4 34.6 55 -6.6 20.2
07:05 1023 30.21 853 25.19 1.9 35.4 52 -7 19.4
07:10 1023 30.21 852 25.16 2.6 36.7 50 -6.8 19.7
07:15 1023 30.21 852 25.16 2.5 36.6 52 -6.3 20.6
07:20 1023 30.21 852 25.16 2.3 36.1 52 -6.5 20.3
07:25 1023 30.21 853 25.19 2 35.6 53 -6.6 20.2
07:30 1023 30.21 853 25.19 2 35.6 53 -6.6 20.1
07:35 1023 30.21 853 25.19 1.9 35.4 53 -6.6 20
07:40 1024 30.24 853 25.19 1.9 35.4 52 -6.8 19.7
07:45 1024 30.24 853 25.19 1.9 35.4 52 -6.8 19.7
07:50 1023 30.21 853 25.19 2 35.7 52 -6.8 19.8
07:55 1023 30.21 853 25.19 2.1 35.8 50 -7.1 19.2
08:00 1023 30.21 853 25.19 2.1 35.8 51 -7.1 19.3
08:05 1023 30.21 853 25.19 2.3 36.2 49 -7.3 18.9
08:10 1023 30.21 853 25.19 2.6 36.6 49 -7.2 19.1
08:15 1023 30.21 853 25.19 2.7 36.9 49 -7.1 19.3
08:20 1024 30.24 853 25.19 2.7 36.8 49 -7 19.4
08:25 1024 30.24 853 25.19 2.5 36.6 49 -7 19.3
08:30 1024 30.24 853 25.19 2.7 36.9 49 -7 19.4
08:35 1024 30.24 853 25.19 3.5 38.2 47 -6.8 19.8
08:40 1024 30.24 853 25.19 4.1 39.4 44 -6.9 19.6
08:45 1024 30.24 853 25.19 4.7 40.4 45 -6.2 20.8
08:50 1024 30.24 853 25.19 4.7 40.5 44 -6.5 20.4
08:55 1024 30.24 853 25.19 5.1 41.2 43 -6.6 20.2
09:00 1024 30.24 853 25.19 5.2 41.4 42 -6.7 19.9
09:05 1024 30.24 853 25.19 5.3 41.6 42 -6.6 20.2
09:10 1024 30.24 853 25.19 4.7 40.5 44 -6.5 20.4
09:15 1024 30.24 853 25.19 4.6 40.2 43 -6.9 19.6
09:20 1024 30.24 853 25.19 4.6 40.3 42 -7.2 19.1
09:25 1024 30.24 853 25.19 5.7 42.3 38 -7.5 18.6
09:30 1024 30.24 853 25.19 6.7 44.1 36 -7.3 18.9
09:35 1024 30.24 853 25.19 6.9 44.4 35 -7.4 18.7
09:40 1024 30.24 853 25.19 6.8 44.2 36 -7.3 18.9
09:45 1024 30.24 853 25.19 6.9 44.4 35 -7.7 18.2
09:50 1024 30.24 853 25.19 6.7 44.1 36 -7.4 18.6
09:55 1024 30.24 853 25.19 6.9 44.5 35 -7.6 18.3
10:00 1024 30.24 853 25.19 7.2 45 35 -7.2 19.1
10:05 1024 30.24 853 25.19 7.4 45.3 35 -7.1 19.2
10:10 1024 30.24 853 25.19 6.7 44.1 36 -7.2 19
10:15 1024 30.24 853 25.19 7.2 45 34 -7.7 18.1
10:20 1024 30.24 853 25.19 7.5 45.5 33 -7.6 18.3
10:25 1024 30.24 853 25.19 7.2 45 34 -7.6 18.4
10:30 1024 30.24 853 25.19 7.7 45.8 33 -7.5 18.5
10:35 1024 30.24 853 25.19 8 46.4 33 -7.4 18.6
10:40 1024 30.24 853 25.19 8.2 46.8 32 -7.3 18.8
10:45 1024 30.24 853 25.19 8.7 47.6 31 -7.5 18.5
10:50 1024 30.24 853 25.19 7.9 46.2 33 -7.4 18.7
10:55 1024 30.24 853 25.19 7.7 45.9 33 -7.8 18
11:00 1024 30.24 853 25.19 7.6 45.7 33 -7.5 18.5
11:05 1024 30.24 853 25.19 7.5 45.5 32 -8.4 17
11:10 1024 30.24 853 25.19 8.5 47.2 31 -7.8 18
11:15 1024 30.24 853 25.19 8.5 47.3 28 -8.8 16.1
11:20 1024 30.24 853 25.19 8.6 47.5 28 -8.8 16.2
11:25 1024 30.24 853 25.19 8.8 47.8 27 -9.1 15.7
11:30 1024 30.24 853 25.19 9 48.1 27 -9.2 15.4
11:35 1024 30.24 853 25.19 9.5 49.1 25 -9.5 14.8
11:40 1024 30.24 853 25.19 9.6 49.2 25 -9.4 15.1
11:45 1024 30.24 853 25.19 9.6 49.3 26 -9.1 15.6
11:50 1023 30.21 853 25.19 9.4 48.9 25 -9.7 14.6
11:55 1023 30.21 853 25.19 8.9 48.1 26 -9.6 14.7
12:00 1023 30.21 853 25.19 8.9 48 25 -10.1 13.8
12:05 1023 30.21 853 25.19 8.9 48 26 -9.5 14.9
12:10 1023 30.21 853 25.19 8.9 47.9 25 -10.2 13.7
12:15 1023 30.21 853 25.19 9.1 48.5 25 -10 14
12:20 1023 30.21 852 25.16 8.9 48 26 -9.8 14.3
12:25 1023 30.21 852 25.16 8.9 47.9 25 -10.1 13.8
12:30 1023 30.21 852 25.16 9.4 49 25 -9.7 14.6
12:35 1023 30.21 852 25.16 9.7 49.4 25 -9.6 14.7
12:40 1023 30.21 852 25.16 9.9 49.8 25 -9.4 15.2
12:45 1023 30.21 852 25.16 9.8 49.7 24 -9.8 14.3
12:50 1023 30.21 852 25.16 9.7 49.4 24 -9.8 14.3
12:55 1023 30.21 852 25.16 9.9 49.9 25 -9.3 15.2
13:00 1023 30.21 852 25.16 10.2 50.4 23 -9.8 14.4
13:05 1023 30.21 852 25.16 10.5 50.9 22 -10.3 13.5
13:10 1023 30.21 852 25.16 10.5 50.9 23 -9.7 14.6
13:15 1023 30.21 852 25.16 10.6 51.1 23 -9.7 14.5
13:20 1023 30.21 852 25.16 11 51.7 21 -10.5 13.1
13:25 1023 30.21 852 25.16 10.3 50.5 23 -10 13.9
13:30 1023 30.21 852 25.16 10.8 51.5 21 -10.9 12.4
13:35 1022 30.18 852 25.16 10.3 50.5 23 -9.9 14.2
13:40 1022 30.18 852 25.16 9.3 48.7 23 -10.9 12.3
13:45 1022 30.18 852 25.16 10.7 51.2 21 -10.7 12.7
13:50 1022 30.18 851 25.13 11.1 52 21 -10.2 13.7
13:55 1022 30.18 851 25.13 11 51.7 22 -10.2 13.7
14:00 1022 30.18 851 25.13 11.2 52.2 21 -10.5 13.2
14:05 1022 30.18 851 25.13 11.8 53.2 21 -10 14
14:10 1022 30.18 851 25.13 11.4 52.6 20 -10.6 12.9
14:15 1022 30.18 851 25.13 11 51.8 21 -10.7 12.7
14:20 1022 30.18 851 25.13 11.5 52.8 19 -11.1 11.9
14:25 1022 30.18 851 25.13 11.7 53.1 21 -9.9 14.1
14:30 1022 30.18 851 25.13 11.7 53.1 20 -10.4 13.3
14:35 1022 30.18 851 25.13 11.2 52.2 21 -10.5 13.1
14:40 1022 30.18 851 25.13 11.4 52.5 20 -11.1 12
14:45 1022 30.18 851 25.13 11.5 52.7 19 -11.1 12
14:50 1022 30.18 851 25.13 11.8 53.2 19 -10.9 12.4
14:55 1022 30.18 851 25.13 11.2 52.1 20 -10.9 12.3
15:00 1022 30.18 851 25.13 11.6 52.9 19 -11.4 11.5
15:05 1022 30.18 851 25.13 11.8 53.2 19 -11.3 11.7
15:10 1022 30.18 851 25.13 12 53.5 18 -11.6 11.2
15:15 1021 30.15 851 25.13 11.6 52.9 18 -11.6 11
15:20 1021 30.15 851 25.13 11.8 53.2 18 -12.1 10.2
15:25 1021 30.15 851 25.13 11.6 52.8 18 -12 10.5
15:30 1021 30.15 851 25.13 11.3 52.3 18 -11.9 10.5
15:35 1021 30.15 851 25.13 11.6 53 17 -12.6 9.3
15:40 1021 30.15 851 25.13 11.5 52.7 17 -12.6 9.3
15:45 1021 30.15 851 25.13 11.5 52.8 18 -11.8 10.7
15:50 1021 30.15 850 25.1 11.7 53.1 18 -11.9 10.6
15:55 1021 30.15 850 25.1 11.7 53.1 17 -12.2 10
16:00 1021 30.15 850 25.1 11.4 52.4 17 -12.7 9.2
16:05 1021 30.15 850 25.1 11.3 52.3 18 -12 10.3
16:10 1021 30.15 850 25.1 11.8 53.2 18 -12.1 10.3
16:15 1021 30.15 850 25.1 11.8 53.2 18 -12.1 10.2
16:20 1021 30.15 850 25.1 11.6 52.9 18 -12.2 10
16:25 1021 30.15 850 25.1 11.4 52.5 18 -12.2 10.1
16:30 1021 30.15 850 25.1 11.5 52.7 18 -12.1 10.2
16:35 1021 30.15 850 25.1 11.5 52.7 17 -12.7 9.2
16:40 1021 30.15 850 25.1 11 51.8 18 -12.6 9.3
16:45 1021 30.15 850 25.1 11.4 52.5 18 -12.3 9.9
16:50 1021 30.15 850 25.1 11.3 52.3 18 -12 10.3
16:55 1021 30.15 850 25.1 11.4 52.4 18 -12.3 9.9
17:00 1021 30.15 850 25.1 11.4 52.4 18 -12.2 10.1
17:05 1021 30.15 850 25.1 11.6 52.8 18 -12.1 10.3
17:10 1021 30.15 850 25.1 11.7 53.1 17 -12.5 9.5
17:15 1021 30.15 850 25.1 11.3 52.3 17 -12.7 9.1
17:20 1021 30.15 850 25.1 11.2 52.1 18 -12.5 9.4
17:25 1021 30.15 850 25.1 11 51.7 18 -12.4 9.7
17:30 1021 30.15 850 25.1 10.9 51.6 18 -12.5 9.4
17:35 1021 30.15 850 25.1 10.9 51.7 19 -12.2 10.1
17:40 1021 30.15 850 25.1 11.2 52.1 18 -12.3 9.9
17:45 1021 30.15 850 25.1 10.9 51.6 19 -12.2 10.1
17:50 1021 30.15 850 25.1 10.8 51.4 18 -12.5 9.4
17:55 1021 30.15 850 25.1 10.6 51.1 18 -12.5 9.5
18:00 1021 30.15 850 25.1 10.5 50.8 19 -12.4 9.6
18:05 1021 30.15 850 25.1 10.5 50.8 19 -12.5 9.5
18:10 1021 30.15 850 25.1 10.4 50.7 19 -12.3 9.8
18:15 1021 30.15 850 25.1 10.3 50.5 19 -12.2 10.1
18:20 1021 30.15 850 25.1 10.1 50.1 19 -12.3 9.8
18:25 1021 30.15 850 25.1 9.8 49.7 20 -12.1 10.2
18:30 1021 30.15 850 25.1 9.7 49.4 21 -11.8 10.8
18:35 1021 30.15 850 25.1 9.5 49.2 21 -11.6 11.1
18:40 1021 30.15 850 25.1 9.3 48.8 22 -11.4 11.4
18:45 1021 30.15 850 25.1 9 48.2 22 -11.5 11.2
18:50 1021 30.15 850 25.1 8.7 47.6 23 -11.5 11.4
18:55 1021 30.15 850 25.1 8.4 47.1 23 -11.5 11.2
19:00 1021 30.15 850 25.1 8.2 46.8 24 -11.3 11.7
19:05 1021 30.15 850 25.1 8 46.4 25 -11.1 12.1
19:10 1021 30.15 850 25.1 7.6 45.7 26 -10.6 12.9
19:15 1021 30.15 850 25.1 6.6 44 28 -10.4 13.3
19:20 1021 30.15 850 25.1 6.2 43.2 28 -10.8 12.5
19:25 1021 30.15 850 25.1 6.3 43.4 27 -11.1 12
19:30 1021 30.15 850 25.1 6.7 44 29 -10.1 13.8
19:35 1021 30.15 850 25.1 6.4 43.5 28 -10.8 12.6
19:40 1021 30.15 850 25.1 6.5 43.6 26 -11.6 11.1
19:45 1021 30.15 850 25.1 6.8 44.3 27 -10.8 12.6
19:50 1021 30.15 850 25.1 6.7 44 28 -10.7 12.8
19:55 1021 30.15 850 25.1 5.7 42.3 29 -11.2 11.9
20:00 1021 30.15 850 25.1 5.3 41.6 30 -10.9 12.3
20:05 1021 30.15 850 25.1 5.4 41.8 30 -10.8 12.5
20:10 1021 30.15 850 25.1 5.6 42 29 -11 12.2
20:15 1021 30.15 850 25.1 5.5 41.9 29 -11.1 12
20:20 1021 30.15 850 25.1 5.5 41.8 29 -11 12.1
20:25 1021 30.15 850 25.1 5.4 41.7 31 -10.6 12.9
20:30 1021 30.15 850 25.1 4.9 40.8 33 -9.9 14.2
20:35 1021 30.15 850 25.1 3.7 38.6 36 -10 14
20:40 1021 30.15 850 25.1 2.9 37.3 37 -10.2 13.6
20:45 1021 30.15 850 25.1 3 37.3 35 -11.2 11.9
20:50 1021 30.15 850 25.1 3.2 37.8 36 -10.3 13.4
20:55 1021 30.15 850 25.1 2.8 37.1 37 -10.6 12.9
21:00 1021 30.15 850 25.1 2.5 36.5 38 -10.4 13.2
21:05 1021 30.15 850 25.1 2.2 35.9 40 -10.2 13.7
21:10 1021 30.15 850 25.1 1.9 35.4 40 -10.3 13.4
21:15 1021 30.15 850 25.1 2.1 35.8 40 -10.2 13.6
21:20 1021 30.15 850 25.1 2.2 36 41 -9.9 14.3
21:25 1021 30.15 850 25.1 1.9 35.4 41 -10.1 13.8
21:30 1021 30.15 850 25.1 2.1 35.7 39 -10.4 13.3
21:35 1021 30.15 850 25.1 2.6 36.7 39 -10.1 13.9
21:40 1021 30.15 850 25.1 2.7 36.8 39 -10 13.9
21:45 1021 30.15 850 25.1 2.3 36.2 41 -9.7 14.5
21:50 1021 30.15 850 25.1 1.7 35.1 41 -10.1 13.7
21:55 1021 30.15 850 25.1 1.6 34.8 41 -10.3 13.5
22:00 1021 30.15 850 25.1 1.5 34.7 41 -10.4 13.4
22:05 1021 30.15 850 25.1 1.5 34.8 41 -10.5 13.2
22:10 1021 30.15 850 25.1 1.5 34.8 41 -10.4 13.4
22:15 1021 30.15 850 25.1 1.2 34.1 41 -10.6 12.9
22:20 1021 30.15 850 25.1 1.2 34.2 44 -9.9 14.2
22:25 1021 30.15 850 25.1 0.8 33.4 45 -9.9 14.2
22:30 1021 30.15 850 25.1 1.2 34.1 41 -10.7 12.8
22:35 1021 30.15 850 25.1 1.6 34.8 39 -10.8 12.5
22:40 1021 30.15 850 25.1 1.7 35 40 -10.5 13.1
22:45 1021 30.15 850 25.1 1.7 35.1 41 -10.1 13.8
22:50 1021 30.15 850 25.1 1.5 34.8 42 -10 14
22:55 1021 30.15 850 25.1 1.2 34.1 44 -9.7 14.6
23:00 1021 30.15 850 25.1 0.6 33.1 47 -9.6 14.7
23:05 1021 30.15 850 25.1 0.1 32.2 49 -9.3 15.3
23:10 1021 30.15 850 25.1 -0.3 31.4 50 -9.5 15
23:15 1021 30.15 850 25.1 -0.4 31.4 50 -9.6 14.7
23:20 1021 30.15 850 25.1 -0.3 31.4 51 -9.4 15.1
23:25 1021 30.15 850 25.1 -0.2 31.6 51 -9.3 15.3
23:30 1021 30.15 850 25.1 -0.2 31.7 50 -9.4 15
23:35 1021 30.15 850 25.1 -0.5 31.1 51 -9.5 14.9
23:40 1021 30.15 850 25.1 -0.4 31.3 50 -9.5 14.8
23:45 1021 30.15 850 25.1 -0.5 31.1 51 -9.5 14.9
23:50 1021 30.15 850 25.1 -0.8 30.6 53 -9.2 15.4
23:55 1021 30.15 850 25.1 -1.3 29.6 56 -9 15.7
24:00 1021 30.15 850 25.1 -1.6 29.2 54 -9.6 14.6